sensor_id;sensor_type;location;lat;lon;timestamp;P1;durP1;ratioP1;P2;durP2;ratioP2
20671;SDS011;10495;50.922;4.760;2023-05-10T00:01:21;9.93;;;6.53;;
20671;SDS011;10495;50.922;4.760;2023-05-10T00:03:46;7.33;;;6.07;;
20671;SDS011;10495;50.922;4.760;2023-05-10T00:06:12;8.07;;;5.93;;
20671;SDS011;10495;50.922;4.760;2023-05-10T00:08:38;7.17;;;5.57;;
20671;SDS011;10495;50.922;4.760;2023-05-10T00:11:03;10.33;;;5.80;;
20671;SDS011;10495;50.922;4.760;2023-05-10T00:13:29;5.70;;;5.10;;
20671;SDS011;10495;50.922;4.760;2023-05-10T00:15:56;7.90;;;5.67;;
20671;SDS011;10495;50.922;4.760;2023-05-10T00:18:22;7.20;;;5.60;;
20671;SDS011;10495;50.922;4.760;2023-05-10T00:20:48;8.60;;;5.80;;
20671;SDS011;10495;50.922;4.760;2023-05-10T00:23:14;6.70;;;5.40;;
20671;SDS011;10495;50.922;4.760;2023-05-10T00:25:39;8.47;;;6.30;;
20671;SDS011;10495;50.922;4.760;2023-05-10T00:28:05;11.30;;;6.50;;
20671;SDS011;10495;50.922;4.760;2023-05-10T00:30:31;9.33;;;5.90;;
20671;SDS011;10495;50.922;4.760;2023-05-10T00:32:56;10.10;;;5.67;;
20671;SDS011;10495;50.922;4.760;2023-05-10T00:35:22;11.37;;;5.53;;
20671;SDS011;10495;50.922;4.760;2023-05-10T00:37:48;9.43;;;5.07;;
20671;SDS011;10495;50.922;4.760;2023-05-10T00:40:13;11.13;;;6.27;;
20671;SDS011;10495;50.922;4.760;2023-05-10T00:42:39;8.93;;;6.00;;
20671;SDS011;10495;50.922;4.760;2023-05-10T00:45:05;9.07;;;5.20;;
20671;SDS011;10495;50.922;4.760;2023-05-10T00:47:31;9.10;;;4.93;;
20671;SDS011;10495;50.922;4.760;2023-05-10T00:49:58;12.10;;;6.53;;
20671;SDS011;10495;50.922;4.760;2023-05-10T00:52:25;10.07;;;5.30;;
20671;SDS011;10495;50.922;4.760;2023-05-10T00:54:52;10.33;;;5.60;;
20671;SDS011;10495;50.922;4.760;2023-05-10T00:57:18;10.93;;;6.50;;
20671;SDS011;10495;50.922;4.760;2023-05-10T00:59:44;9.77;;;6.00;;
20671;SDS011;10495;50.922;4.760;2023-05-10T01:02:10;7.77;;;5.67;;
20671;SDS011;10495;50.922;4.760;2023-05-10T01:04:36;9.50;;;5.60;;
20671;SDS011;10495;50.922;4.760;2023-05-10T01:07:03;11.10;;;6.23;;
20671;SDS011;10495;50.922;4.760;2023-05-10T01:09:29;9.20;;;6.63;;
20671;SDS011;10495;50.922;4.760;2023-05-10T01:11:54;9.93;;;6.70;;
20671;SDS011;10495;50.922;4.760;2023-05-10T01:14:21;11.73;;;6.77;;
20671;SDS011;10495;50.922;4.760;2023-05-10T01:16:47;11.20;;;7.13;;
20671;SDS011;10495;50.922;4.760;2023-05-10T01:19:24;12.30;;;7.13;;
20671;SDS011;10495;50.922;4.760;2023-05-10T01:35:43;15.37;;;7.60;;
20671;SDS011;10495;50.922;4.760;2023-05-10T01:38:22;15.07;;;8.47;;
20671;SDS011;10495;50.922;4.760;2023-05-10T01:41:16;14.47;;;7.03;;
20671;SDS011;10495;50.922;4.760;2023-05-10T01:44:10;11.30;;;8.03;;
20671;SDS011;10495;50.922;4.760;2023-05-10T01:47:05;13.03;;;6.87;;
20671;SDS011;10495;50.922;4.760;2023-05-10T01:49:36;14.70;;;7.90;;
20671;SDS011;10495;50.922;4.760;2023-05-10T01:52:09;16.20;;;8.17;;
20671;SDS011;10495;50.922;4.760;2023-05-10T01:54:38;14.10;;;8.67;;
20671;SDS011;10495;50.922;4.760;2023-05-10T01:57:09;15.50;;;8.73;;
20671;SDS011;10495;50.922;4.760;2023-05-10T01:59:39;13.37;;;7.60;;
20671;SDS011;10495;50.922;4.760;2023-05-10T02:02:07;12.77;;;7.93;;
20671;SDS011;10495;50.922;4.760;2023-05-10T02:04:37;12.90;;;8.30;;
20671;SDS011;10495;50.922;4.760;2023-05-10T02:07:05;11.83;;;8.33;;
20671;SDS011;10495;50.922;4.760;2023-05-10T02:09:32;14.23;;;9.37;;
20671;SDS011;10495;50.922;4.760;2023-05-10T02:11:59;13.43;;;9.17;;
20671;SDS011;10495;50.922;4.760;2023-05-10T02:14:27;13.53;;;8.77;;
20671;SDS011;10495;50.922;4.760;2023-05-10T02:16:57;12.10;;;8.37;;
20671;SDS011;10495;50.922;4.760;2023-05-10T02:19:24;13.07;;;9.40;;
20671;SDS011;10495;50.922;4.760;2023-05-10T02:21:51;13.20;;;8.97;;
20671;SDS011;10495;50.922;4.760;2023-05-10T02:24:17;15.63;;;8.87;;
20671;SDS011;10495;50.922;4.760;2023-05-10T02:26:44;11.40;;;8.27;;
20671;SDS011;10495;50.922;4.760;2023-05-10T02:29:12;15.97;;;10.10;;
20671;SDS011;10495;50.922;4.760;2023-05-10T02:31:39;15.47;;;10.17;;
20671;SDS011;10495;50.922;4.760;2023-05-10T02:34:08;12.97;;;8.83;;
20671;SDS011;10495;50.922;4.760;2023-05-10T02:36:36;13.17;;;8.50;;
20671;SDS011;10495;50.922;4.760;2023-05-10T02:39:03;11.03;;;8.13;;
20671;SDS011;10495;50.922;4.760;2023-05-10T02:41:34;13.47;;;8.07;;
20671;SDS011;10495;50.922;4.760;2023-05-10T02:44:01;15.77;;;8.83;;
20671;SDS011;10495;50.922;4.760;2023-05-10T02:46:29;14.00;;;9.03;;
20671;SDS011;10495;50.922;4.760;2023-05-10T02:48:55;10.77;;;8.23;;
20671;SDS011;10495;50.922;4.760;2023-05-10T02:51:20;11.53;;;7.87;;
20671;SDS011;10495;50.922;4.760;2023-05-10T02:53:53;12.97;;;8.60;;
20671;SDS011;10495;50.922;4.760;2023-05-10T02:56:23;13.40;;;8.97;;
20671;SDS011;10495;50.922;4.760;2023-05-10T02:58:53;15.60;;;9.80;;
20671;SDS011;10495;50.922;4.760;2023-05-10T03:01:20;11.20;;;8.53;;
20671;SDS011;10495;50.922;4.760;2023-05-10T03:03:45;12.07;;;8.10;;
20671;SDS011;10495;50.922;4.760;2023-05-10T03:06:11;13.47;;;9.80;;
20671;SDS011;10495;50.922;4.760;2023-05-10T03:08:37;15.70;;;9.63;;
20671;SDS011;10495;50.922;4.760;2023-05-10T03:14:30;14.60;;;8.93;;
20671;SDS011;10495;50.922;4.760;2023-05-10T03:16:36;13.67;;;8.83;;
20671;SDS011;10495;50.922;4.760;2023-05-10T03:19:11;13.30;;;9.03;;
20671;SDS011;10495;50.922;4.760;2023-05-10T03:22:19;14.93;;;8.53;;
20671;SDS011;10495;50.922;4.760;2023-05-10T03:25:04;14.57;;;8.97;;
20671;SDS011;10495;50.922;4.760;2023-05-10T03:27:31;10.93;;;8.30;;
20671;SDS011;10495;50.922;4.760;2023-05-10T03:29:58;19.33;;;10.43;;
20671;SDS011;10495;50.922;4.760;2023-05-10T03:32:26;13.70;;;8.77;;
20671;SDS011;10495;50.922;4.760;2023-05-10T03:34:53;13.83;;;9.60;;
20671;SDS011;10495;50.922;4.760;2023-05-10T03:37:19;15.97;;;10.03;;
20671;SDS011;10495;50.922;4.760;2023-05-10T03:39:44;16.67;;;10.53;;
20671;SDS011;10495;50.922;4.760;2023-05-10T03:42:10;13.97;;;8.93;;
20671;SDS011;10495;50.922;4.760;2023-05-10T03:44:37;17.23;;;9.37;;
20671;SDS011;10495;50.922;4.760;2023-05-10T03:47:03;14.27;;;9.53;;
20671;SDS011;10495;50.922;4.760;2023-05-10T03:49:29;15.90;;;10.23;;
20671;SDS011;10495;50.922;4.760;2023-05-10T03:51:55;12.37;;;8.80;;
20671;SDS011;10495;50.922;4.760;2023-05-10T03:54:20;13.77;;;9.93;;
20671;SDS011;10495;50.922;4.760;2023-05-10T03:56:46;14.83;;;9.40;;
20671;SDS011;10495;50.922;4.760;2023-05-10T03:59:13;17.27;;;9.97;;
20671;SDS011;10495;50.922;4.760;2023-05-10T04:01:38;16.13;;;10.37;;
20671;SDS011;10495;50.922;4.760;2023-05-10T04:04:04;14.60;;;9.30;;
20671;SDS011;10495;50.922;4.760;2023-05-10T04:06:29;16.80;;;9.53;;
20671;SDS011;10495;50.922;4.760;2023-05-10T04:08:55;13.83;;;8.47;;
20671;SDS011;10495;50.922;4.760;2023-05-10T04:11:24;17.47;;;9.67;;
20671;SDS011;10495;50.922;4.760;2023-05-10T04:13:50;16.57;;;10.77;;
20671;SDS011;10495;50.922;4.760;2023-05-10T04:16:16;25.53;;;12.63;;
20671;SDS011;10495;50.922;4.760;2023-05-10T04:18:41;20.33;;;11.27;;
20671;SDS011;10495;50.922;4.760;2023-05-10T04:21:13;18.57;;;10.37;;
20671;SDS011;10495;50.922;4.760;2023-05-10T04:23:39;16.20;;;10.63;;
20671;SDS011;10495;50.922;4.760;2023-05-10T04:26:05;18.37;;;11.40;;
20671;SDS011;10495;50.922;4.760;2023-05-10T04:28:31;19.23;;;10.83;;
20671;SDS011;10495;50.922;4.760;2023-05-10T04:31:01;22.47;;;11.73;;
20671;SDS011;10495;50.922;4.760;2023-05-10T04:33:30;17.23;;;11.10;;
20671;SDS011;10495;50.922;4.760;2023-05-10T04:35:56;21.20;;;12.00;;
20671;SDS011;10495;50.922;4.760;2023-05-10T04:38:21;17.50;;;9.80;;
20671;SDS011;10495;50.922;4.760;2023-05-10T04:40:47;26.10;;;13.67;;
20671;SDS011;10495;50.922;4.760;2023-05-10T04:43:12;20.73;;;12.73;;
20671;SDS011;10495;50.922;4.760;2023-05-10T04:45:38;25.73;;;11.80;;
20671;SDS011;10495;50.922;4.760;2023-05-10T04:48:04;21.83;;;11.73;;
20671;SDS011;10495;50.922;4.760;2023-05-10T04:50:30;26.10;;;14.20;;
20671;SDS011;10495;50.922;4.760;2023-05-10T04:52:56;18.43;;;11.47;;
20671;SDS011;10495;50.922;4.760;2023-05-10T04:55:22;25.20;;;13.80;;
20671;SDS011;10495;50.922;4.760;2023-05-10T04:57:47;23.57;;;14.53;;
20671;SDS011;10495;50.922;4.760;2023-05-10T05:00:13;25.20;;;13.93;;
20671;SDS011;10495;50.922;4.760;2023-05-10T05:02:42;25.20;;;14.53;;
20671;SDS011;10495;50.922;4.760;2023-05-10T05:05:08;30.13;;;15.70;;
20671;SDS011;10495;50.922;4.760;2023-05-10T05:07:34;31.77;;;17.17;;
20671;SDS011;10495;50.922;4.760;2023-05-10T05:10:00;38.07;;;18.83;;
20671;SDS011;10495;50.922;4.760;2023-05-10T05:12:25;35.87;;;19.97;;
20671;SDS011;10495;50.922;4.760;2023-05-10T05:14:51;38.90;;;20.53;;
20671;SDS011;10495;50.922;4.760;2023-05-10T05:17:17;37.90;;;18.83;;
20671;SDS011;10495;50.922;4.760;2023-05-10T05:19:42;40.80;;;21.03;;
20671;SDS011;10495;50.922;4.760;2023-05-10T05:22:08;34.97;;;19.00;;
20671;SDS011;10495;50.922;4.760;2023-05-10T05:24:36;37.60;;;19.03;;
20671;SDS011;10495;50.922;4.760;2023-05-10T05:27:03;36.20;;;18.97;;
20671;SDS011;10495;50.922;4.760;2023-05-10T05:29:29;32.10;;;16.63;;
20671;SDS011;10495;50.922;4.760;2023-05-10T05:31:54;32.00;;;16.17;;
20671;SDS011;10495;50.922;4.760;2023-05-10T05:34:20;32.27;;;16.83;;
20671;SDS011;10495;50.922;4.760;2023-05-10T05:36:46;33.60;;;17.87;;
20671;SDS011;10495;50.922;4.760;2023-05-10T05:39:12;39.93;;;19.70;;
20671;SDS011;10495;50.922;4.760;2023-05-10T05:41:38;29.23;;;16.37;;
20671;SDS011;10495;50.922;4.760;2023-05-10T05:44:03;31.20;;;16.80;;
20671;SDS011;10495;50.922;4.760;2023-05-10T05:46:29;32.50;;;17.53;;
20671;SDS011;10495;50.922;4.760;2023-05-10T05:48:55;29.57;;;15.53;;
20671;SDS011;10495;50.922;4.760;2023-05-10T05:51:21;28.60;;;15.20;;
20671;SDS011;10495;50.922;4.760;2023-05-10T05:53:46;29.77;;;15.07;;
20671;SDS011;10495;50.922;4.760;2023-05-10T05:56:12;27.07;;;14.83;;
20671;SDS011;10495;50.922;4.760;2023-05-10T05:58:37;27.03;;;15.87;;
20671;SDS011;10495;50.922;4.760;2023-05-10T06:01:04;28.63;;;16.53;;
20671;SDS011;10495;50.922;4.760;2023-05-10T06:03:29;24.63;;;14.10;;
20671;SDS011;10495;50.922;4.760;2023-05-10T06:05:55;26.03;;;14.97;;
20671;SDS011;10495;50.922;4.760;2023-05-10T06:08:21;23.83;;;14.17;;
20671;SDS011;10495;50.922;4.760;2023-05-10T06:10:47;25.47;;;14.93;;
20671;SDS011;10495;50.922;4.760;2023-05-10T06:13:13;23.33;;;13.53;;
20671;SDS011;10495;50.922;4.760;2023-05-10T06:15:38;20.50;;;12.53;;
20671;SDS011;10495;50.922;4.760;2023-05-10T06:18:04;24.67;;;13.27;;
20671;SDS011;10495;50.922;4.760;2023-05-10T06:20:30;24.83;;;14.43;;
20671;SDS011;10495;50.922;4.760;2023-05-10T06:22:56;28.17;;;14.80;;
20671;SDS011;10495;50.922;4.760;2023-05-10T06:25:23;24.10;;;14.50;;
20671;SDS011;10495;50.922;4.760;2023-05-10T06:27:48;22.47;;;13.13;;
20671;SDS011;10495;50.922;4.760;2023-05-10T06:30:14;21.67;;;12.47;;
20671;SDS011;10495;50.922;4.760;2023-05-10T06:32:40;25.07;;;14.83;;
20671;SDS011;10495;50.922;4.760;2023-05-10T06:35:06;22.53;;;13.13;;
20671;SDS011;10495;50.922;4.760;2023-05-10T06:37:33;21.03;;;13.63;;
20671;SDS011;10495;50.922;4.760;2023-05-10T06:39:59;23.27;;;13.27;;
20671;SDS011;10495;50.922;4.760;2023-05-10T06:42:25;21.13;;;13.27;;
20671;SDS011;10495;50.922;4.760;2023-05-10T06:44:52;20.80;;;12.63;;
20671;SDS011;10495;50.922;4.760;2023-05-10T06:47:17;22.67;;;12.83;;
20671;SDS011;10495;50.922;4.760;2023-05-10T06:49:43;21.67;;;14.33;;
20671;SDS011;10495;50.922;4.760;2023-05-10T06:52:09;21.67;;;14.73;;
20671;SDS011;10495;50.922;4.760;2023-05-10T06:54:34;24.83;;;14.10;;
20671;SDS011;10495;50.922;4.760;2023-05-10T06:57:00;22.07;;;12.73;;
20671;SDS011;10495;50.922;4.760;2023-05-10T06:59:27;23.63;;;13.83;;
20671;SDS011;10495;50.922;4.760;2023-05-10T07:01:53;21.67;;;13.70;;
20671;SDS011;10495;50.922;4.760;2023-05-10T07:04:19;24.30;;;14.27;;
20671;SDS011;10495;50.922;4.760;2023-05-10T07:06:44;21.27;;;13.43;;
20671;SDS011;10495;50.922;4.760;2023-05-10T07:09:11;22.03;;;13.37;;
20671;SDS011;10495;50.922;4.760;2023-05-10T07:11:38;20.20;;;13.27;;
20671;SDS011;10495;50.922;4.760;2023-05-10T07:14:03;21.57;;;13.37;;
20671;SDS011;10495;50.922;4.760;2023-05-10T07:16:29;19.10;;;12.20;;
20671;SDS011;10495;50.922;4.760;2023-05-10T07:18:55;24.80;;;14.87;;
20671;SDS011;10495;50.922;4.760;2023-05-10T07:21:20;21.80;;;14.30;;
20671;SDS011;10495;50.922;4.760;2023-05-10T07:23:48;23.53;;;13.40;;
20671;SDS011;10495;50.922;4.760;2023-05-10T07:26:15;18.80;;;12.53;;
20671;SDS011;10495;50.922;4.760;2023-05-10T07:28:41;17.83;;;12.37;;
20671;SDS011;10495;50.922;4.760;2023-05-10T07:31:07;11.63;;;8.37;;
20671;SDS011;10495;50.922;4.760;2023-05-10T07:33:32;13.53;;;9.30;;
20671;SDS011;10495;50.922;4.760;2023-05-10T07:35:58;11.93;;;8.73;;
20671;SDS011;10495;50.922;4.760;2023-05-10T07:38:23;12.47;;;7.80;;
20671;SDS011;10495;50.922;4.760;2023-05-10T07:40:49;10.70;;;7.50;;
20671;SDS011;10495;50.922;4.760;2023-05-10T07:43:15;15.30;;;7.73;;
20671;SDS011;10495;50.922;4.760;2023-05-10T07:45:40;9.90;;;6.80;;
20671;SDS011;10495;50.922;4.760;2023-05-10T07:48:06;8.83;;;6.23;;
20671;SDS011;10495;50.922;4.760;2023-05-10T07:50:32;8.97;;;6.17;;
20671;SDS011;10495;50.922;4.760;2023-05-10T07:52:57;8.63;;;6.13;;
20671;SDS011;10495;50.922;4.760;2023-05-10T07:55:23;8.60;;;5.53;;
20671;SDS011;10495;50.922;4.760;2023-05-10T07:57:49;10.07;;;4.80;;
20671;SDS011;10495;50.922;4.760;2023-05-10T08:00:18;8.73;;;5.17;;
20671;SDS011;10495;50.922;4.760;2023-05-10T08:02:45;10.07;;;6.13;;
20671;SDS011;10495;50.922;4.760;2023-05-10T08:05:11;7.60;;;5.07;;
20671;SDS011;10495;50.922;4.760;2023-05-10T08:07:37;8.40;;;5.00;;
20671;SDS011;10495;50.922;4.760;2023-05-10T08:10:03;7.47;;;4.83;;
20671;SDS011;10495;50.922;4.760;2023-05-10T08:12:29;7.90;;;4.63;;
20671;SDS011;10495;50.922;4.760;2023-05-10T08:14:55;6.67;;;4.73;;
20671;SDS011;10495;50.922;4.760;2023-05-10T08:17:21;6.23;;;4.20;;
20671;SDS011;10495;50.922;4.760;2023-05-10T08:19:46;7.30;;;4.53;;
20671;SDS011;10495;50.922;4.760;2023-05-10T08:22:12;9.37;;;5.63;;
20671;SDS011;10495;50.922;4.760;2023-05-10T08:24:38;11.67;;;6.10;;
20671;SDS011;10495;50.922;4.760;2023-05-10T08:27:07;13.10;;;7.47;;
20671;SDS011;10495;50.922;4.760;2023-05-10T08:29:33;13.10;;;7.87;;
20671;SDS011;10495;50.922;4.760;2023-05-10T08:31:59;10.93;;;7.03;;
20671;SDS011;10495;50.922;4.760;2023-05-10T08:34:25;12.40;;;8.30;;
20671;SDS011;10495;50.922;4.760;2023-05-10T08:36:52;14.97;;;8.63;;
20671;SDS011;10495;50.922;4.760;2023-05-10T08:39:17;14.40;;;8.53;;
20671;SDS011;10495;50.922;4.760;2023-05-10T08:41:44;13.07;;;7.50;;
20671;SDS011;10495;50.922;4.760;2023-05-10T08:44:11;17.43;;;8.47;;
20671;SDS011;10495;50.922;4.760;2023-05-10T08:46:37;17.93;;;8.13;;
20671;SDS011;10495;50.922;4.760;2023-05-10T08:49:10;12.60;;;6.77;;
20671;SDS011;10495;50.922;4.760;2023-05-10T08:51:40;14.33;;;6.97;;
20671;SDS011;10495;50.922;4.760;2023-05-10T08:54:12;10.53;;;6.50;;
20671;SDS011;10495;50.922;4.760;2023-05-10T08:56:38;10.43;;;7.60;;
20671;SDS011;10495;50.922;4.760;2023-05-10T08:59:04;11.37;;;5.97;;
20671;SDS011;10495;50.922;4.760;2023-05-10T09:01:30;12.50;;;6.77;;
20671;SDS011;10495;50.922;4.760;2023-05-10T09:03:56;10.13;;;6.30;;
20671;SDS011;10495;50.922;4.760;2023-05-10T09:06:23;10.33;;;6.43;;
20671;SDS011;10495;50.922;4.760;2023-05-10T09:08:49;10.20;;;6.43;;
20671;SDS011;10495;50.922;4.760;2023-05-10T09:11:15;11.20;;;6.27;;
20671;SDS011;10495;50.922;4.760;2023-05-10T09:13:42;12.30;;;6.27;;
20671;SDS011;10495;50.922;4.760;2023-05-10T09:16:08;9.70;;;6.10;;
20671;SDS011;10495;50.922;4.760;2023-05-10T09:18:35;8.60;;;5.67;;
20671;SDS011;10495;50.922;4.760;2023-05-10T09:21:01;8.60;;;6.00;;
20671;SDS011;10495;50.922;4.760;2023-05-10T09:23:26;9.57;;;6.43;;
20671;SDS011;10495;50.922;4.760;2023-05-10T09:26:06;7.57;;;5.33;;
20671;SDS011;10495;50.922;4.760;2023-05-10T09:28:49;7.33;;;5.00;;
20671;SDS011;10495;50.922;4.760;2023-05-10T09:31:17;9.37;;;5.63;;
20671;SDS011;10495;50.922;4.760;2023-05-10T09:33:45;9.47;;;6.03;;
20671;SDS011;10495;50.922;4.760;2023-05-10T09:36:12;9.93;;;6.07;;
20671;SDS011;10495;50.922;4.760;2023-05-10T09:38:45;9.17;;;5.63;;
20671;SDS011;10495;50.922;4.760;2023-05-10T09:41:18;11.60;;;5.97;;
20671;SDS011;10495;50.922;4.760;2023-05-10T09:43:48;7.00;;;5.30;;
20671;SDS011;10495;50.922;4.760;2023-05-10T09:46:15;11.27;;;5.57;;
20671;SDS011;10495;50.922;4.760;2023-05-10T09:48:42;8.40;;;5.27;;
20671;SDS011;10495;50.922;4.760;2023-05-10T09:51:10;10.40;;;6.00;;
20671;SDS011;10495;50.922;4.760;2023-05-10T09:53:43;10.20;;;5.93;;
20671;SDS011;10495;50.922;4.760;2023-05-10T09:56:09;7.43;;;5.03;;
20671;SDS011;10495;50.922;4.760;2023-05-10T09:58:36;9.80;;;6.13;;
20671;SDS011;10495;50.922;4.760;2023-05-10T10:01:03;7.53;;;5.30;;
20671;SDS011;10495;50.922;4.760;2023-05-10T10:03:28;9.67;;;4.60;;
20671;SDS011;10495;50.922;4.760;2023-05-10T10:05:55;7.47;;;4.73;;
20671;SDS011;10495;50.922;4.760;2023-05-10T10:08:21;6.13;;;4.17;;
20671;SDS011;10495;50.922;4.760;2023-05-10T10:10:47;8.50;;;5.33;;
20671;SDS011;10495;50.922;4.760;2023-05-10T10:13:13;7.60;;;4.23;;
20671;SDS011;10495;50.922;4.760;2023-05-10T10:15:40;6.37;;;4.10;;
20671;SDS011;10495;50.922;4.760;2023-05-10T10:18:11;6.10;;;4.10;;
20671;SDS011;10495;50.922;4.760;2023-05-10T10:20:40;7.00;;;4.10;;
20671;SDS011;10495;50.922;4.760;2023-05-10T10:23:06;5.97;;;3.90;;
20671;SDS011;10495;50.922;4.760;2023-05-10T10:25:33;8.67;;;4.00;;
20671;SDS011;10495;50.922;4.760;2023-05-10T10:28:43;4.97;;;3.70;;
20671;SDS011;10495;50.922;4.760;2023-05-10T10:30:51;7.63;;;4.20;;
20671;SDS011;10495;50.922;4.760;2023-05-10T10:36:12;5.57;;;3.87;;
20671;SDS011;10495;50.922;4.760;2023-05-10T10:50:03;4.07;;;3.10;;
20671;SDS011;10495;50.922;4.760;2023-05-10T10:57:27;3.97;;;2.80;;
20671;SDS011;10495;50.922;4.760;2023-05-10T11:02:44;5.27;;;2.87;;
20671;SDS011;10495;50.922;4.760;2023-05-10T11:05:24;6.47;;;2.80;;
20671;SDS011;10495;50.922;4.760;2023-05-10T11:07:56;2.90;;;2.43;;
20671;SDS011;10495;50.922;4.760;2023-05-10T11:10:23;3.73;;;3.23;;
20671;SDS011;10495;50.922;4.760;2023-05-10T11:13:11;3.73;;;2.40;;
20671;SDS011;10495;50.922;4.760;2023-05-10T11:15:39;4.73;;;2.93;;
20671;SDS011;10495;50.922;4.760;2023-05-10T11:18:18;2.57;;;1.90;;
20671;SDS011;10495;50.922;4.760;2023-05-10T11:20:58;4.70;;;1.70;;
20671;SDS011;10495;50.922;4.760;2023-05-10T11:23:29;2.40;;;1.87;;
20671;SDS011;10495;50.922;4.760;2023-05-10T11:26:15;1.60;;;1.50;;
20671;SDS011;10495;50.922;4.760;2023-05-10T11:28:45;1.30;;;1.20;;
20671;SDS011;10495;50.922;4.760;2023-05-10T11:31:15;2.00;;;1.53;;
20671;SDS011;10495;50.922;4.760;2023-05-10T11:33:46;3.00;;;1.47;;
20671;SDS011;10495;50.922;4.760;2023-05-10T11:36:14;2.53;;;1.60;;
20671;SDS011;10495;50.922;4.760;2023-05-10T11:38:41;2.33;;;1.50;;
20671;SDS011;10495;50.922;4.760;2023-05-10T11:41:08;2.03;;;1.37;;
20671;SDS011;10495;50.922;4.760;2023-05-10T11:43:35;1.43;;;1.20;;
20671;SDS011;10495;50.922;4.760;2023-05-10T11:46:03;1.87;;;1.20;;
20671;SDS011;10495;50.922;4.760;2023-05-10T11:48:30;1.30;;;1.20;;
20671;SDS011;10495;50.922;4.760;2023-05-10T11:50:56;2.03;;;1.20;;
20671;SDS011;10495;50.922;4.760;2023-05-10T11:53:22;1.00;;;1.00;;
20671;SDS011;10495;50.922;4.760;2023-05-10T11:55:50;1.20;;;1.10;;
20671;SDS011;10495;50.922;4.760;2023-05-10T11:58:17;1.10;;;1.00;;
20671;SDS011;10495;50.922;4.760;2023-05-10T12:00:44;4.87;;;1.00;;
20671;SDS011;10495;50.922;4.760;2023-05-10T12:03:10;1.00;;;0.90;;
20671;SDS011;10495;50.922;4.760;2023-05-10T12:05:36;1.00;;;0.80;;
20671;SDS011;10495;50.922;4.760;2023-05-10T12:08:15;1.23;;;1.10;;
20671;SDS011;10495;50.922;4.760;2023-05-10T12:10:45;1.33;;;1.10;;
20671;SDS011;10495;50.922;4.760;2023-05-10T12:13:11;1.97;;;1.47;;
20671;SDS011;10495;50.922;4.760;2023-05-10T12:15:39;2.87;;;1.60;;
20671;SDS011;10495;50.922;4.760;2023-05-10T12:18:04;2.27;;;1.47;;
20671;SDS011;10495;50.922;4.760;2023-05-10T12:20:30;2.30;;;1.37;;
20671;SDS011;10495;50.922;4.760;2023-05-10T12:22:57;3.67;;;1.60;;
20671;SDS011;10495;50.922;4.760;2023-05-10T12:25:24;2.03;;;1.80;;
20671;SDS011;10495;50.922;4.760;2023-05-10T12:27:56;3.23;;;2.00;;
20671;SDS011;10495;50.922;4.760;2023-05-10T12:32:49;2.00;;;1.67;;
20671;SDS011;10495;50.922;4.760;2023-05-10T12:35:15;6.20;;;2.50;;
20671;SDS011;10495;50.922;4.760;2023-05-10T12:37:42;3.50;;;1.90;;
20671;SDS011;10495;50.922;4.760;2023-05-10T12:40:08;2.60;;;2.30;;
20671;SDS011;10495;50.922;4.760;2023-05-10T12:42:36;5.57;;;2.50;;
20671;SDS011;10495;50.922;4.760;2023-05-10T12:45:02;2.30;;;2.10;;
20671;SDS011;10495;50.922;4.760;2023-05-10T12:47:30;3.20;;;2.30;;
20671;SDS011;10495;50.922;4.760;2023-05-10T12:49:56;3.57;;;2.73;;
20671;SDS011;10495;50.922;4.760;2023-05-10T12:52:22;3.43;;;2.40;;
20671;SDS011;10495;50.922;4.760;2023-05-10T12:54:48;4.63;;;2.97;;
20671;SDS011;10495;50.922;4.760;2023-05-10T12:57:14;3.80;;;2.83;;
20671;SDS011;10495;50.922;4.760;2023-05-10T12:59:39;3.70;;;2.40;;
20671;SDS011;10495;50.922;4.760;2023-05-10T13:02:05;4.40;;;3.60;;
20671;SDS011;10495;50.922;4.760;2023-05-10T13:04:31;8.07;;;7.27;;
20671;SDS011;10495;50.922;4.760;2023-05-10T13:06:57;2.57;;;2.37;;
20671;SDS011;10495;50.922;4.760;2023-05-10T13:09:26;4.00;;;3.70;;
20671;SDS011;10495;50.922;4.760;2023-05-10T13:11:54;2.50;;;2.23;;
20671;SDS011;10495;50.922;4.760;2023-05-10T13:14:20;4.20;;;2.93;;
20671;SDS011;10495;50.922;4.760;2023-05-10T13:16:46;5.67;;;2.40;;
20671;SDS011;10495;50.922;4.760;2023-05-10T13:19:12;3.50;;;2.67;;
20671;SDS011;10495;50.922;4.760;2023-05-10T13:21:38;3.93;;;3.63;;
20671;SDS011;10495;50.922;4.760;2023-05-10T13:24:06;11.83;;;9.83;;
20671;SDS011;10495;50.922;4.760;2023-05-10T13:26:32;3.70;;;3.40;;
20671;SDS011;10495;50.922;4.760;2023-05-10T13:28:57;3.83;;;3.30;;
20671;SDS011;10495;50.922;4.760;2023-05-10T13:31:23;8.63;;;4.60;;
20671;SDS011;10495;50.922;4.760;2023-05-10T13:33:49;10.00;;;4.60;;
20671;SDS011;10495;50.922;4.760;2023-05-10T13:36:14;3.93;;;2.90;;
20671;SDS011;10495;50.922;4.760;2023-05-10T13:38:40;3.77;;;3.17;;
20671;SDS011;10495;50.922;4.760;2023-05-10T13:41:06;4.87;;;4.37;;
20671;SDS011;10495;50.922;4.760;2023-05-10T13:43:31;8.67;;;7.47;;
20671;SDS011;10495;50.922;4.760;2023-05-10T13:45:57;10.37;;;6.03;;
20671;SDS011;10495;50.922;4.760;2023-05-10T13:48:23;3.60;;;3.30;;
20671;SDS011;10495;50.922;4.760;2023-05-10T13:50:48;3.43;;;3.13;;
20671;SDS011;10495;50.922;4.760;2023-05-10T13:53:14;3.33;;;3.03;;
20671;SDS011;10495;50.922;4.760;2023-05-10T13:55:40;3.00;;;2.70;;
20671;SDS011;10495;50.922;4.760;2023-05-10T13:58:06;3.73;;;2.63;;
20671;SDS011;10495;50.922;4.760;2023-05-10T14:00:32;3.67;;;2.83;;
20671;SDS011;10495;50.922;4.760;2023-05-10T14:02:57;4.67;;;2.30;;
20671;SDS011;10495;50.922;4.760;2023-05-10T14:05:23;3.50;;;2.53;;
20671;SDS011;10495;50.922;4.760;2023-05-10T14:07:49;5.57;;;3.07;;
20671;SDS011;10495;50.922;4.760;2023-05-10T14:10:15;3.03;;;2.00;;
20671;SDS011;10495;50.922;4.760;2023-05-10T14:12:41;3.40;;;2.63;;
20671;SDS011;10495;50.922;4.760;2023-05-10T14:15:07;6.20;;;2.90;;
20671;SDS011;10495;50.922;4.760;2023-05-10T14:17:35;3.33;;;2.23;;
20671;SDS011;10495;50.922;4.760;2023-05-10T14:20:01;2.70;;;1.93;;
20671;SDS011;10495;50.922;4.760;2023-05-10T14:22:27;2.70;;;2.07;;
20671;SDS011;10495;50.922;4.760;2023-05-10T14:24:52;3.73;;;2.20;;
20671;SDS011;10495;50.922;4.760;2023-05-10T14:27:18;2.97;;;2.60;;
20671;SDS011;10495;50.922;4.760;2023-05-10T14:29:44;3.67;;;3.13;;
20671;SDS011;10495;50.922;4.760;2023-05-10T14:32:10;3.83;;;3.27;;
20671;SDS011;10495;50.922;4.760;2023-05-10T14:34:35;3.50;;;3.20;;
20671;SDS011;10495;50.922;4.760;2023-05-10T14:37:01;4.40;;;2.90;;
20671;SDS011;10495;50.922;4.760;2023-05-10T14:39:27;4.53;;;3.10;;
20671;SDS011;10495;50.922;4.760;2023-05-10T14:41:55;5.07;;;2.73;;
20671;SDS011;10495;50.922;4.760;2023-05-10T14:44:21;3.10;;;2.77;;
20671;SDS011;10495;50.922;4.760;2023-05-10T14:46:46;2.83;;;2.30;;
20671;SDS011;10495;50.922;4.760;2023-05-10T14:49:13;3.27;;;2.97;;
20671;SDS011;10495;50.922;4.760;2023-05-10T14:51:39;3.80;;;2.63;;
20671;SDS011;10495;50.922;4.760;2023-05-10T14:54:04;2.70;;;2.40;;
20671;SDS011;10495;50.922;4.760;2023-05-10T14:56:30;3.83;;;2.97;;
20671;SDS011;10495;50.922;4.760;2023-05-10T14:58:56;4.50;;;3.30;;
20671;SDS011;10495;50.922;4.760;2023-05-10T15:01:22;6.17;;;3.40;;
20671;SDS011;10495;50.922;4.760;2023-05-10T15:03:47;4.00;;;3.40;;
20671;SDS011;10495;50.922;4.760;2023-05-10T15:06:16;4.83;;;3.67;;
20671;SDS011;10495;50.922;4.760;2023-05-10T15:08:42;3.50;;;3.10;;
20671;SDS011;10495;50.922;4.760;2023-05-10T15:11:08;3.10;;;2.47;;
20671;SDS011;10495;50.922;4.760;2023-05-10T15:13:34;3.83;;;3.07;;
20671;SDS011;10495;50.922;4.760;2023-05-10T15:15:59;4.80;;;3.60;;
20671;SDS011;10495;50.922;4.760;2023-05-10T15:18:25;3.80;;;3.17;;
20671;SDS011;10495;50.922;4.760;2023-05-10T15:20:51;5.77;;;3.77;;